Terminal Aerodrome Forecast
Issued by NWS Brownsville, TX

Home | Current Version | Previous Version | Text Only | Print | Product List | Glossary On
Versions: 1 2 3 4 5 6 7 8 9 10 11 12 13 14 15 16 17 18 19 20 21 22 23 24 25 26 27
000
FTUS44 KBRO 192300
TAFMFE
TAF
KMFE 192320Z 2000/2024 09009KT P6SM SCT050 BKN100
     FM200600 VRB03KT P6SM SCT030 BKN050 OVC100 PROB30 2012/2018 -DZ
      BKN030 OVC050
     FM201800 10010KT P6SM VCTS SCT025 BKN050CB PROB30 2018/2024
      -TSRA BKN025CB OVC050=

USA.gov is the U.S. government's official web portal to all federal, state and local government web resources and services.